Main page
METAR-TAF:

METAR-TAF

Airports :

Luton Airport

Luton, England

latitude: 51-52N, longitude: 000-22W, elevation: 160 m

Current weather observation

The report was made 15 minutes ago, at 15:20 UTC
Wind 8 kt from the South/Southwest, varying between South/Southeast and West/Southwest
Temperature 30°C
Humidity 35%
Pressure 1015 hPa
Visibility 10 km or more

METAR: EGGW 231520Z AUTO 20008KT 160V240 9999 NCD 30/13 Q1015

Time: 16:35 (15:35 UTC)

Forecast

The report was made 4 hours and 41 minutes ago, at 10:54 UTC
Forecast valid from 23 at 12 UTC to 24 at 12 UTC
Wind 8 kt from the Southwest
Visibility 10 km or more
Few clouds at a height of 4000 ft
Probability 30%
from 24 at 01 UTC to 24 at 07 UTC
Visibility: 6000 m

TAF: EGGW 231054Z 2312/2412 22008KT 9999 FEW040 PROB30 2401/2407 6000

Weather observations and forecasts of more than 4000 airports (METAR and TAF reports).

The available stations are represented by yellow and red dots on the map.

Hover mouse over dot to see the name of the station.

Then click to see weather observations and forecasts.

To change the map : click on the green buttons with a black cross to zoom in, on the green button with a dash to zoom out, or on the green arrows for adjacent maps.


METAR-TAF: